Santa Paula, CA

7:02 PM PDT on August 20, 2014 (GMT -0700)
Oxnard | Change Station
CLOSE
Current Station
Airport
Location: Oxnard,
Elevation: 43 ft
Nearby Weather Stations

Elev 43 ft 34.20 °N, 119.20 °W | Updated 11 minutes ago

Clear
Clear
68 °F
Feels Like 68 °F
N
15
Wind Variable Wind from West

Today
High -- | Low -- °F
--% Chance of Precip.
Yesterday
High -- | Low -- °F
Precip. -- in
6:21 AM 7:37 PM
Waning Crescent, 17% visible
Pressure 29.89 in
Visibility 10.0 miles
Clouds Clear
Dew Point 57 °F
Humidity 68%
Rainfall 0.00 in
Snow Depth Not available.
UV 0 out of 12
Pollen 7.80 out of 12
Ozone Good
PM2.5 Good
Flu Activity Not available.
METAR KOXR 210151Z 28013KT 10SM CLR 20/14 A2989 RMK AO2 SLPNO T02000139

More Conditions Fewer Conditions

Pressure 29.89 in
Visibility 10.0 miles
Clouds Clear
Dew Point 57 °F
Humidity 68%
Rainfall 0.00 in
Snow Depth Not available.
UV 0 out of 12
Pollen 7.80 out of 12
Ozone Good
PM2.5 Good
Flu Activity Not available.
METAR KOXR 210151Z 28013KT 10SM CLR 20/14 A2989 RMK AO2 SLPNO T02000139

More Conditions Fewer Conditions

10-Day Weather Forecast

Almanac

Astronomy

Aug. 20, 2014 Rise Set
Actual Time 6:21 AM PDT 7:37 PM PDT
Civil Twilight 5:54 AM PDT 8:03 PM PDT
Nautical Twilight 5:23 AM PDT 8:35 PM PDT
Astronomical Twilight 4:50 AM PDT 9:07 PM PDT
Moon 2:09 AM PDT (8/20) 4:21 PM PDT (8/20)
Length of Visible Light 14h 09m
Length of Day
13h 16m
Tomorrow will be 1m 57s shorter.
Waning Crescent, 17% of the Moon is Illuminated
Today
Waning Crescent
Aug 25
New
Sep 2
First Quarter
Sep 8
Full
Sep 15
Last Quarter

Today's Extremes

State Highs State Lows

Community

WunderPhotos

Upload Photos

1,745,853 photos uploaded!

WunderBlogs® & News

By Dr. Jeff Masters
Director of Meteorology, Weather Underground
By Kari Strenfel
Meteorologist, Weather Underground
By Christopher C. Burt
Weather Historian, Weather Underground
August 20, 2014
August 20, 2014
August 20, 2014

Nearby

Air Quality

  Air Quality AQ Index Pollutant
Yesterday Good
PM2.5
Yesterday Good
OZONE
Current Good
PM2.5
Current Good
OZONE
Wednesday Good
OZONE
Wednesday Good
PM2.5
Thursday Good
OZONE
Thursday Good
PM2.5
Friday Good
OZONE
Friday Good
PM2.5
Saturday Good
OZONE
Saturday Good
PM2.5
Sunday Good
OZONE
Sunday Good
PM2.5
Monday Good
OZONE
Monday Good
PM2.5

Snow Depth

Station Depth Elevation
Leavitt Meadows 0 in 7200 ft
Summit Meadow 0 in 9122 ft
Adin Mountain 1 in 6200 ft
Cedar Pass 0 in 7100 ft

Earthquake Activity

City Distance Mag. Time & Date
King City, California 168 miles 2.7 10:26 PM PDT
2014-08-15
Malibu Beach, California 34 miles 3.4 10:03 AM PDT
2014-08-15
Kettleman City, California 128 miles 2.9 11:32 PM PDT
2014-08-14
King City, California 168 miles 2.9 8:01 PM PDT
2014-08-14
Minimum magnitude displayed is 2.5.

Coastal Water Temperatures

Place Temperature
Santa Monica Pier 73.0 °F
Los Angeles, CA 66.9 °F
Port San Luis, CA 59.0 °F

Nearby Weather Stations